sensor_id;sensor_type;location;lat;lon;timestamp;temperature;humidity
28484;DHT22;15704;48.834;8.736;2023-02-23T00:01:25;8.50;99.90
28484;DHT22;15704;48.834;8.736;2023-02-23T00:03:54;8.50;99.90
28484;DHT22;15704;48.834;8.736;2023-02-23T00:06:23;8.50;99.90
28484;DHT22;15704;48.834;8.736;2023-02-23T00:08:50;8.50;99.90
28484;DHT22;15704;48.834;8.736;2023-02-23T00:11:18;8.50;99.90
28484;DHT22;15704;48.834;8.736;2023-02-23T00:13:48;8.50;99.90
28484;DHT22;15704;48.834;8.736;2023-02-23T00:16:25;8.50;99.90
28484;DHT22;15704;48.834;8.736;2023-02-23T00:18:54;8.60;99.90
28484;DHT22;15704;48.834;8.736;2023-02-23T00:21:24;8.50;99.90
28484;DHT22;15704;48.834;8.736;2023-02-23T00:23:56;8.50;99.90
28484;DHT22;15704;48.834;8.736;2023-02-23T00:26:25;8.50;99.90
28484;DHT22;15704;48.834;8.736;2023-02-23T00:28:52;8.50;99.90
28484;DHT22;15704;48.834;8.736;2023-02-23T00:31:20;8.50;99.90
28484;DHT22;15704;48.834;8.736;2023-02-23T00:33:58;8.50;99.90
28484;DHT22;15704;48.834;8.736;2023-02-23T00:36:28;8.50;99.90
28484;DHT22;15704;48.834;8.736;2023-02-23T00:38:57;8.50;99.90
28484;DHT22;15704;48.834;8.736;2023-02-23T00:41:26;8.50;99.90
28484;DHT22;15704;48.834;8.736;2023-02-23T00:43:58;8.50;99.90
28484;DHT22;15704;48.834;8.736;2023-02-23T00:46:27;8.50;99.90
28484;DHT22;15704;48.834;8.736;2023-02-23T00:48:56;8.40;99.90
28484;DHT22;15704;48.834;8.736;2023-02-23T00:51:24;8.40;99.90
28484;DHT22;15704;48.834;8.736;2023-02-23T00:54:00;8.40;99.90
28484;DHT22;15704;48.834;8.736;2023-02-23T00:56:27;8.40;99.90
28484;DHT22;15704;48.834;8.736;2023-02-23T00:58:54;8.40;99.90
28484;DHT22;15704;48.834;8.736;2023-02-23T01:01:22;8.40;99.90
28484;DHT22;15704;48.834;8.736;2023-02-23T01:04:15;8.40;99.90
28484;DHT22;15704;48.834;8.736;2023-02-23T01:07:02;8.40;99.90
28484;DHT22;15704;48.834;8.736;2023-02-23T01:09:37;8.30;99.90
28484;DHT22;15704;48.834;8.736;2023-02-23T01:12:04;8.20;99.90
28484;DHT22;15704;48.834;8.736;2023-02-23T01:14:36;8.10;99.90
28484;DHT22;15704;48.834;8.736;2023-02-23T01:17:03;7.90;99.90
28484;DHT22;15704;48.834;8.736;2023-02-23T01:19:30;8.00;99.90
28484;DHT22;15704;48.834;8.736;2023-02-23T01:21:59;8.00;99.90
28484;DHT22;15704;48.834;8.736;2023-02-23T01:24:27;7.80;99.90
28484;DHT22;15704;48.834;8.736;2023-02-23T01:26:54;7.90;99.90
28484;DHT22;15704;48.834;8.736;2023-02-23T01:29:21;7.90;99.90
28484;DHT22;15704;48.834;8.736;2023-02-23T01:31:48;7.90;99.90
28484;DHT22;15704;48.834;8.736;2023-02-23T01:34:19;7.80;99.90
28484;DHT22;15704;48.834;8.736;2023-02-23T01:36:47;7.70;99.90
28484;DHT22;15704;48.834;8.736;2023-02-23T01:39:17;7.70;99.90
28484;DHT22;15704;48.834;8.736;2023-02-23T01:41:44;7.70;99.90
28484;DHT22;15704;48.834;8.736;2023-02-23T01:46:45;7.90;99.90
28484;DHT22;15704;48.834;8.736;2023-02-23T01:49:22;7.90;99.90
28484;DHT22;15704;48.834;8.736;2023-02-23T01:51:58;7.90;99.90
28484;DHT22;15704;48.834;8.736;2023-02-23T01:54:32;8.00;99.90
28484;DHT22;15704;48.834;8.736;2023-02-23T01:57:02;8.00;99.90
28484;DHT22;15704;48.834;8.736;2023-02-23T01:59:38;8.00;99.90
28484;DHT22;15704;48.834;8.736;2023-02-23T02:02:07;8.10;99.90
28484;DHT22;15704;48.834;8.736;2023-02-23T02:04:35;8.10;99.90
28484;DHT22;15704;48.834;8.736;2023-02-23T02:07:29;8.10;99.90
28484;DHT22;15704;48.834;8.736;2023-02-23T02:09:57;8.10;99.90
28484;DHT22;15704;48.834;8.736;2023-02-23T02:12:42;8.20;99.90
28484;DHT22;15704;48.834;8.736;2023-02-23T02:15:17;8.20;99.90
28484;DHT22;15704;48.834;8.736;2023-02-23T02:28:44;8.30;99.90
28484;DHT22;15704;48.834;8.736;2023-02-23T02:31:41;8.30;99.90
28484;DHT22;15704;48.834;8.736;2023-02-23T02:46:21;8.30;99.90
28484;DHT22;15704;48.834;8.736;2023-02-23T02:48:56;8.30;99.90
28484;DHT22;15704;48.834;8.736;2023-02-23T02:51:30;8.30;99.90
28484;DHT22;15704;48.834;8.736;2023-02-23T02:56:47;8.40;99.90
28484;DHT22;15704;48.834;8.736;2023-02-23T02:59:17;8.40;99.90
28484;DHT22;15704;48.834;8.736;2023-02-23T03:02:04;8.40;99.90
28484;DHT22;15704;48.834;8.736;2023-02-23T03:04:50;8.40;99.90
28484;DHT22;15704;48.834;8.736;2023-02-23T03:16:46;8.40;99.90
28484;DHT22;15704;48.834;8.736;2023-02-23T03:19:54;8.30;99.90
28484;DHT22;15704;48.834;8.736;2023-02-23T03:25:50;8.30;99.90
28484;DHT22;15704;48.834;8.736;2023-02-23T03:28:45;8.30;99.90
28484;DHT22;15704;48.834;8.736;2023-02-23T03:31:48;8.40;99.90
28484;DHT22;15704;48.834;8.736;2023-02-23T03:34:44;8.40;99.90
28484;DHT22;15704;48.834;8.736;2023-02-23T03:37:38;8.40;99.90
28484;DHT22;15704;48.834;8.736;2023-02-23T03:40:36;8.30;99.90
28484;DHT22;15704;48.834;8.736;2023-02-23T03:43:32;8.40;99.90
28484;DHT22;15704;48.834;8.736;2023-02-23T03:46:20;8.30;99.90
28484;DHT22;15704;48.834;8.736;2023-02-23T03:49:08;8.30;99.90
28484;DHT22;15704;48.834;8.736;2023-02-23T03:52:00;8.30;99.90
28484;DHT22;15704;48.834;8.736;2023-02-23T03:54:54;8.30;99.90
28484;DHT22;15704;48.834;8.736;2023-02-23T03:57:42;8.30;99.90
28484;DHT22;15704;48.834;8.736;2023-02-23T04:00:33;8.30;99.90
28484;DHT22;15704;48.834;8.736;2023-02-23T04:03:21;8.30;99.90
28484;DHT22;15704;48.834;8.736;2023-02-23T04:06:13;8.30;99.90
28484;DHT22;15704;48.834;8.736;2023-02-23T04:09:02;8.30;99.90
28484;DHT22;15704;48.834;8.736;2023-02-23T04:15:14;8.40;99.90
28484;DHT22;15704;48.834;8.736;2023-02-23T04:17:43;8.40;99.90
28484;DHT22;15704;48.834;8.736;2023-02-23T04:20:11;8.30;99.90
28484;DHT22;15704;48.834;8.736;2023-02-23T04:22:39;8.30;99.90
28484;DHT22;15704;48.834;8.736;2023-02-23T04:25:05;8.30;99.90
28484;DHT22;15704;48.834;8.736;2023-02-23T04:27:37;8.30;99.90
28484;DHT22;15704;48.834;8.736;2023-02-23T04:30:10;8.30;99.90
28484;DHT22;15704;48.834;8.736;2023-02-23T04:32:37;8.30;99.90
28484;DHT22;15704;48.834;8.736;2023-02-23T04:35:08;8.30;99.90
28484;DHT22;15704;48.834;8.736;2023-02-23T04:37:39;8.30;99.90
28484;DHT22;15704;48.834;8.736;2023-02-23T04:40:06;8.30;99.90
28484;DHT22;15704;48.834;8.736;2023-02-23T04:42:40;8.20;99.90
28484;DHT22;15704;48.834;8.736;2023-02-23T04:45:16;8.30;99.90
28484;DHT22;15704;48.834;8.736;2023-02-23T04:47:43;8.30;99.90
28484;DHT22;15704;48.834;8.736;2023-02-23T04:50:11;8.30;99.90
28484;DHT22;15704;48.834;8.736;2023-02-23T04:52:38;8.20;99.90
28484;DHT22;15704;48.834;8.736;2023-02-23T04:55:05;8.20;99.90
28484;DHT22;15704;48.834;8.736;2023-02-23T04:57:33;8.20;99.90
28484;DHT22;15704;48.834;8.736;2023-02-23T05:00:00;8.30;99.90
28484;DHT22;15704;48.834;8.736;2023-02-23T05:02:38;8.30;99.90
28484;DHT22;15704;48.834;8.736;2023-02-23T05:05:32;8.30;99.90
28484;DHT22;15704;48.834;8.736;2023-02-23T05:08:11;8.30;99.90
28484;DHT22;15704;48.834;8.736;2023-02-23T05:10:38;8.20;99.90
28484;DHT22;15704;48.834;8.736;2023-02-23T05:13:18;8.20;99.90
28484;DHT22;15704;48.834;8.736;2023-02-23T05:15:59;8.20;99.90
28484;DHT22;15704;48.834;8.736;2023-02-23T05:18:26;8.10;99.90
28484;DHT22;15704;48.834;8.736;2023-02-23T05:21:03;8.10;99.90
28484;DHT22;15704;48.834;8.736;2023-02-23T05:23:36;8.10;99.90
28484;DHT22;15704;48.834;8.736;2023-02-23T05:26:06;8.10;99.90
28484;DHT22;15704;48.834;8.736;2023-02-23T05:28:35;8.10;99.90
28484;DHT22;15704;48.834;8.736;2023-02-23T05:31:02;8.00;99.90
28484;DHT22;15704;48.834;8.736;2023-02-23T05:33:31;8.00;99.90
28484;DHT22;15704;48.834;8.736;2023-02-23T05:35:58;8.00;99.90
28484;DHT22;15704;48.834;8.736;2023-02-23T05:38:25;8.00;99.90
28484;DHT22;15704;48.834;8.736;2023-02-23T05:40:52;7.90;99.90
28484;DHT22;15704;48.834;8.736;2023-02-23T05:43:19;7.90;99.90
28484;DHT22;15704;48.834;8.736;2023-02-23T05:45:50;7.90;99.90
28484;DHT22;15704;48.834;8.736;2023-02-23T05:48:17;7.90;99.90
28484;DHT22;15704;48.834;8.736;2023-02-23T05:50:44;7.90;99.90
28484;DHT22;15704;48.834;8.736;2023-02-23T05:53:13;7.90;99.90
28484;DHT22;15704;48.834;8.736;2023-02-23T05:55:40;7.90;99.90
28484;DHT22;15704;48.834;8.736;2023-02-23T05:58:06;7.80;99.90
28484;DHT22;15704;48.834;8.736;2023-02-23T06:00:36;7.80;99.90
28484;DHT22;15704;48.834;8.736;2023-02-23T06:03:03;7.80;99.90
28484;DHT22;15704;48.834;8.736;2023-02-23T06:05:29;7.80;99.90
28484;DHT22;15704;48.834;8.736;2023-02-23T06:07:56;7.80;99.90
28484;DHT22;15704;48.834;8.736;2023-02-23T06:10:34;7.70;99.90
28484;DHT22;15704;48.834;8.736;2023-02-23T06:13:01;7.70;99.90
28484;DHT22;15704;48.834;8.736;2023-02-23T06:15:27;7.70;99.90
28484;DHT22;15704;48.834;8.736;2023-02-23T06:17:55;7.70;99.90
28484;DHT22;15704;48.834;8.736;2023-02-23T06:20:22;7.70;99.90
28484;DHT22;15704;48.834;8.736;2023-02-23T06:22:49;7.70;99.90
28484;DHT22;15704;48.834;8.736;2023-02-23T06:25:41;7.50;99.90
28484;DHT22;15704;48.834;8.736;2023-02-23T06:28:14;7.40;99.90
28484;DHT22;15704;48.834;8.736;2023-02-23T06:30:41;7.40;99.90
28484;DHT22;15704;48.834;8.736;2023-02-23T06:33:13;7.40;99.90
28484;DHT22;15704;48.834;8.736;2023-02-23T06:35:44;7.40;99.90
28484;DHT22;15704;48.834;8.736;2023-02-23T06:38:11;7.30;99.90
28484;DHT22;15704;48.834;8.736;2023-02-23T06:40:38;7.40;99.90
28484;DHT22;15704;48.834;8.736;2023-02-23T06:43:05;7.50;99.90
28484;DHT22;15704;48.834;8.736;2023-02-23T06:45:35;7.50;99.90
28484;DHT22;15704;48.834;8.736;2023-02-23T06:48:02;7.50;99.90
28484;DHT22;15704;48.834;8.736;2023-02-23T06:50:29;7.50;99.90
28484;DHT22;15704;48.834;8.736;2023-02-23T06:52:56;7.60;99.90
28484;DHT22;15704;48.834;8.736;2023-02-23T06:55:23;7.60;99.90
28484;DHT22;15704;48.834;8.736;2023-02-23T06:57:50;7.70;99.90
28484;DHT22;15704;48.834;8.736;2023-02-23T07:00:20;7.70;99.90
28484;DHT22;15704;48.834;8.736;2023-02-23T07:02:50;7.70;99.90
28484;DHT22;15704;48.834;8.736;2023-02-23T07:05:16;7.70;99.90
28484;DHT22;15704;48.834;8.736;2023-02-23T07:07:43;7.80;99.90
28484;DHT22;15704;48.834;8.736;2023-02-23T07:10:11;7.80;99.90
28484;DHT22;15704;48.834;8.736;2023-02-23T07:12:37;7.80;99.90
28484;DHT22;15704;48.834;8.736;2023-02-23T07:15:10;7.80;99.90
28484;DHT22;15704;48.834;8.736;2023-02-23T07:17:46;7.90;99.90
28484;DHT22;15704;48.834;8.736;2023-02-23T07:20:20;8.00;99.90
28484;DHT22;15704;48.834;8.736;2023-02-23T07:22:46;8.10;99.90
28484;DHT22;15704;48.834;8.736;2023-02-23T07:25:13;8.00;99.90
28484;DHT22;15704;48.834;8.736;2023-02-23T07:27:40;8.10;99.90
28484;DHT22;15704;48.834;8.736;2023-02-23T07:30:08;8.20;99.90
28484;DHT22;15704;48.834;8.736;2023-02-23T07:32:35;8.30;99.90
28484;DHT22;15704;48.834;8.736;2023-02-23T07:35:03;8.40;99.90
28484;DHT22;15704;48.834;8.736;2023-02-23T07:37:30;8.50;99.90
28484;DHT22;15704;48.834;8.736;2023-02-23T07:40:05;8.60;99.90
28484;DHT22;15704;48.834;8.736;2023-02-23T07:42:32;8.70;99.90
28484;DHT22;15704;48.834;8.736;2023-02-23T07:44:59;8.80;99.90
28484;DHT22;15704;48.834;8.736;2023-02-23T07:47:26;8.80;99.90
28484;DHT22;15704;48.834;8.736;2023-02-23T07:49:57;8.90;99.90
28484;DHT22;15704;48.834;8.736;2023-02-23T07:52:25;9.00;99.90
28484;DHT22;15704;48.834;8.736;2023-02-23T07:54:52;9.10;99.90
28484;DHT22;15704;48.834;8.736;2023-02-23T07:57:19;9.30;99.90
28484;DHT22;15704;48.834;8.736;2023-02-23T07:59:50;9.30;99.90
28484;DHT22;15704;48.834;8.736;2023-02-23T08:02:17;9.40;99.90
28484;DHT22;15704;48.834;8.736;2023-02-23T08:05:00;9.40;99.90
28484;DHT22;15704;48.834;8.736;2023-02-23T08:07:27;9.40;99.90
28484;DHT22;15704;48.834;8.736;2023-02-23T08:09:54;9.40;99.90
28484;DHT22;15704;48.834;8.736;2023-02-23T08:12:21;9.50;99.90
28484;DHT22;15704;48.834;8.736;2023-02-23T08:14:47;9.70;99.90
28484;DHT22;15704;48.834;8.736;2023-02-23T08:17:14;9.80;99.90
28484;DHT22;15704;48.834;8.736;2023-02-23T08:19:41;9.90;99.90
28484;DHT22;15704;48.834;8.736;2023-02-23T08:22:08;10.10;99.90
28484;DHT22;15704;48.834;8.736;2023-02-23T08:24:36;10.10;99.90
28484;DHT22;15704;48.834;8.736;2023-02-23T08:27:03;10.30;99.90
28484;DHT22;15704;48.834;8.736;2023-02-23T08:29:30;10.50;99.90
28484;DHT22;15704;48.834;8.736;2023-02-23T08:31:57;10.70;99.90
28484;DHT22;15704;48.834;8.736;2023-02-23T08:34:24;10.80;99.90
28484;DHT22;15704;48.834;8.736;2023-02-23T08:36:51;11.10;99.90
28484;DHT22;15704;48.834;8.736;2023-02-23T08:39:19;11.20;99.90
28484;DHT22;15704;48.834;8.736;2023-02-23T08:41:47;11.40;99.90
28484;DHT22;15704;48.834;8.736;2023-02-23T08:44:14;11.40;99.90
28484;DHT22;15704;48.834;8.736;2023-02-23T08:46:40;11.60;99.90
28484;DHT22;15704;48.834;8.736;2023-02-23T08:49:07;11.80;99.90
28484;DHT22;15704;48.834;8.736;2023-02-23T08:51:36;12.10;99.90
28484;DHT22;15704;48.834;8.736;2023-02-23T08:54:02;12.30;99.90
28484;DHT22;15704;48.834;8.736;2023-02-23T08:56:29;12.50;99.90
28484;DHT22;15704;48.834;8.736;2023-02-23T08:58:57;12.60;99.90
28484;DHT22;15704;48.834;8.736;2023-02-23T09:01:24;12.60;99.90
28484;DHT22;15704;48.834;8.736;2023-02-23T09:03:50;12.60;99.90
28484;DHT22;15704;48.834;8.736;2023-02-23T09:06:20;12.90;99.90
28484;DHT22;15704;48.834;8.736;2023-02-23T09:08:48;12.90;99.90
28484;DHT22;15704;48.834;8.736;2023-02-23T09:11:15;12.70;99.90
28484;DHT22;15704;48.834;8.736;2023-02-23T09:13:42;12.90;99.90
28484;DHT22;15704;48.834;8.736;2023-02-23T09:16:09;12.90;99.90
28484;DHT22;15704;48.834;8.736;2023-02-23T09:18:39;12.90;99.90
28484;DHT22;15704;48.834;8.736;2023-02-23T09:21:09;13.10;99.90
28484;DHT22;15704;48.834;8.736;2023-02-23T09:23:39;13.10;99.90
28484;DHT22;15704;48.834;8.736;2023-02-23T09:26:07;13.20;99.90
28484;DHT22;15704;48.834;8.736;2023-02-23T09:28:36;12.90;99.90
28484;DHT22;15704;48.834;8.736;2023-02-23T09:31:09;12.50;99.90
28484;DHT22;15704;48.834;8.736;2023-02-23T09:33:36;12.20;99.90
28484;DHT22;15704;48.834;8.736;2023-02-23T09:36:08;12.10;99.90
28484;DHT22;15704;48.834;8.736;2023-02-23T09:38:38;12.40;99.90
28484;DHT22;15704;48.834;8.736;2023-02-23T09:46:53;12.30;99.90
28484;DHT22;15704;48.834;8.736;2023-02-23T09:49:27;12.50;99.90
28484;DHT22;15704;48.834;8.736;2023-02-23T09:51:57;12.90;99.90
28484;DHT22;15704;48.834;8.736;2023-02-23T09:54:27;12.70;99.90
28484;DHT22;15704;48.834;8.736;2023-02-23T09:56:55;12.90;99.90
28484;DHT22;15704;48.834;8.736;2023-02-23T09:59:24;13.10;99.90
28484;DHT22;15704;48.834;8.736;2023-02-23T10:01:57;13.20;99.90
28484;DHT22;15704;48.834;8.736;2023-02-23T10:04:32;13.40;99.90
28484;DHT22;15704;48.834;8.736;2023-02-23T10:07:17;13.60;99.90
28484;DHT22;15704;48.834;8.736;2023-02-23T10:12:48;13.10;99.90
28484;DHT22;15704;48.834;8.736;2023-02-23T10:21:22;13.50;99.90
28484;DHT22;15704;48.834;8.736;2023-02-23T10:24:10;13.20;99.90
28484;DHT22;15704;48.834;8.736;2023-02-23T10:26:53;13.30;99.90
28484;DHT22;15704;48.834;8.736;2023-02-23T10:29:24;12.90;99.90
28484;DHT22;15704;48.834;8.736;2023-02-23T10:31:59;12.80;99.90
28484;DHT22;15704;48.834;8.736;2023-02-23T10:34:28;12.90;99.90
28484;DHT22;15704;48.834;8.736;2023-02-23T10:37:01;13.10;99.90
28484;DHT22;15704;48.834;8.736;2023-02-23T10:39:29;13.20;99.90
28484;DHT22;15704;48.834;8.736;2023-02-23T10:42:03;12.90;99.90
28484;DHT22;15704;48.834;8.736;2023-02-23T10:44:31;13.00;99.90
28484;DHT22;15704;48.834;8.736;2023-02-23T10:47:01;12.90;99.90
28484;DHT22;15704;48.834;8.736;2023-02-23T10:49:45;13.00;99.90
28484;DHT22;15704;48.834;8.736;2023-02-23T10:52:16;13.00;99.90
28484;DHT22;15704;48.834;8.736;2023-02-23T10:54:46;12.90;99.90
28484;DHT22;15704;48.834;8.736;2023-02-23T10:57:31;12.90;99.90
28484;DHT22;15704;48.834;8.736;2023-02-23T11:02:33;12.40;99.90
28484;DHT22;15704;48.834;8.736;2023-02-23T11:05:02;12.10;99.90
28484;DHT22;15704;48.834;8.736;2023-02-23T11:07:31;12.00;99.90
28484;DHT22;15704;48.834;8.736;2023-02-23T11:10:23;11.90;99.90
28484;DHT22;15704;48.834;8.736;2023-02-23T11:12:50;12.00;99.90
28484;DHT22;15704;48.834;8.736;2023-02-23T11:15:31;12.20;99.90
28484;DHT22;15704;48.834;8.736;2023-02-23T11:18:20;12.10;99.90
28484;DHT22;15704;48.834;8.736;2023-02-23T11:20:48;12.20;99.90
28484;DHT22;15704;48.834;8.736;2023-02-23T11:23:34;12.30;99.90
28484;DHT22;15704;48.834;8.736;2023-02-23T11:26:05;12.30;99.90
28484;DHT22;15704;48.834;8.736;2023-02-23T11:28:41;12.20;99.90
28484;DHT22;15704;48.834;8.736;2023-02-23T11:31:15;12.20;99.90
28484;DHT22;15704;48.834;8.736;2023-02-23T11:33:44;12.00;99.90
28484;DHT22;15704;48.834;8.736;2023-02-23T11:38:45;12.00;99.90
28484;DHT22;15704;48.834;8.736;2023-02-23T11:41:22;12.20;99.90
28484;DHT22;15704;48.834;8.736;2023-02-23T11:43:57;12.60;99.90
28484;DHT22;15704;48.834;8.736;2023-02-23T11:46:25;12.60;99.90
28484;DHT22;15704;48.834;8.736;2023-02-23T11:49:02;12.50;99.90
28484;DHT22;15704;48.834;8.736;2023-02-23T11:51:35;12.70;99.90
28484;DHT22;15704;48.834;8.736;2023-02-23T11:54:04;12.70;99.90
28484;DHT22;15704;48.834;8.736;2023-02-23T11:56:37;12.50;99.90
28484;DHT22;15704;48.834;8.736;2023-02-23T11:59:16;12.80;99.90
28484;DHT22;15704;48.834;8.736;2023-02-23T12:01:53;12.80;99.90
28484;DHT22;15704;48.834;8.736;2023-02-23T12:04:31;13.10;99.90
28484;DHT22;15704;48.834;8.736;2023-02-23T12:12:58;13.40;99.90
28484;DHT22;15704;48.834;8.736;2023-02-23T12:17:57;13.20;99.90
28484;DHT22;15704;48.834;8.736;2023-02-23T12:20:30;13.30;99.90
28484;DHT22;15704;48.834;8.736;2023-02-23T12:23:02;13.80;99.90
28484;DHT22;15704;48.834;8.736;2023-02-23T12:25:39;13.50;99.90
28484;DHT22;15704;48.834;8.736;2023-02-23T12:28:21;13.40;99.90
28484;DHT22;15704;48.834;8.736;2023-02-23T12:30:57;13.70;99.90
28484;DHT22;15704;48.834;8.736;2023-02-23T12:33:41;13.70;99.90
28484;DHT22;15704;48.834;8.736;2023-02-23T12:38:58;13.50;99.90
28484;DHT22;15704;48.834;8.736;2023-02-23T12:44:04;13.20;99.90
28484;DHT22;15704;48.834;8.736;2023-02-23T12:46:42;13.20;99.90
28484;DHT22;15704;48.834;8.736;2023-02-23T12:52:15;12.50;99.90
28484;DHT22;15704;48.834;8.736;2023-02-23T12:54:44;12.60;99.90
28484;DHT22;15704;48.834;8.736;2023-02-23T12:57:37;12.40;99.90
28484;DHT22;15704;48.834;8.736;2023-02-23T13:06:12;11.90;99.90
28484;DHT22;15704;48.834;8.736;2023-02-23T13:16:43;11.40;99.90
28484;DHT22;15704;48.834;8.736;2023-02-23T13:19:37;11.40;99.90
28484;DHT22;15704;48.834;8.736;2023-02-23T13:25:51;11.50;99.90
28484;DHT22;15704;48.834;8.736;2023-02-23T13:31:31;11.60;99.90
28484;DHT22;15704;48.834;8.736;2023-02-23T13:34:01;11.50;99.90
28484;DHT22;15704;48.834;8.736;2023-02-23T13:36:33;11.50;99.90
28484;DHT22;15704;48.834;8.736;2023-02-23T13:39:42;11.40;99.90
28484;DHT22;15704;48.834;8.736;2023-02-23T13:45:58;11.20;99.90
28484;DHT22;15704;48.834;8.736;2023-02-23T13:48:39;11.10;99.90
28484;DHT22;15704;48.834;8.736;2023-02-23T13:54:16;11.10;99.90
28484;DHT22;15704;48.834;8.736;2023-02-23T13:56:55;11.30;99.90
28484;DHT22;15704;48.834;8.736;2023-02-23T13:59:22;11.40;99.90
28484;DHT22;15704;48.834;8.736;2023-02-23T14:01:52;11.40;99.90
28484;DHT22;15704;48.834;8.736;2023-02-23T14:04:28;11.30;99.90
28484;DHT22;15704;48.834;8.736;2023-02-23T14:12:34;11.00;99.90
28484;DHT22;15704;48.834;8.736;2023-02-23T14:42:39;10.80;99.90
28484;DHT22;15704;48.834;8.736;2023-02-23T14:47:46;10.80;99.90
28484;DHT22;15704;48.834;8.736;2023-02-23T14:50:24;10.80;99.90
28484;DHT22;15704;48.834;8.736;2023-02-23T14:52:54;11.10;99.90
28484;DHT22;15704;48.834;8.736;2023-02-23T14:55:23;11.20;99.90
28484;DHT22;15704;48.834;8.736;2023-02-23T14:57:52;11.20;99.90
28484;DHT22;15704;48.834;8.736;2023-02-23T15:00:35;11.20;99.90
28484;DHT22;15704;48.834;8.736;2023-02-23T15:03:08;11.20;99.90
28484;DHT22;15704;48.834;8.736;2023-02-23T15:05:51;11.20;99.90
28484;DHT22;15704;48.834;8.736;2023-02-23T15:08:25;11.10;99.90
28484;DHT22;15704;48.834;8.736;2023-02-23T15:11:02;11.00;99.90
28484;DHT22;15704;48.834;8.736;2023-02-23T15:13:36;10.90;99.90
28484;DHT22;15704;48.834;8.736;2023-02-23T15:16:11;11.10;99.90
28484;DHT22;15704;48.834;8.736;2023-02-23T15:18:42;11.10;99.90
28484;DHT22;15704;48.834;8.736;2023-02-23T15:21:19;11.00;99.90
28484;DHT22;15704;48.834;8.736;2023-02-23T15:23:49;11.00;99.90
28484;DHT22;15704;48.834;8.736;2023-02-23T15:26:28;11.00;99.90
28484;DHT22;15704;48.834;8.736;2023-02-23T15:31:36;10.60;99.90
28484;DHT22;15704;48.834;8.736;2023-02-23T15:34:09;10.50;99.90
28484;DHT22;15704;48.834;8.736;2023-02-23T15:36:37;10.50;99.90
28484;DHT22;15704;48.834;8.736;2023-02-23T15:39:19;10.30;99.90
28484;DHT22;15704;48.834;8.736;2023-02-23T15:41:48;10.40;99.90
28484;DHT22;15704;48.834;8.736;2023-02-23T15:44:25;10.40;99.90
28484;DHT22;15704;48.834;8.736;2023-02-23T15:47:05;10.60;99.90
28484;DHT22;15704;48.834;8.736;2023-02-23T15:49:35;10.60;99.90
28484;DHT22;15704;48.834;8.736;2023-02-23T15:52:08;10.50;99.90
28484;DHT22;15704;48.834;8.736;2023-02-23T15:55:04;10.70;99.90
28484;DHT22;15704;48.834;8.736;2023-02-23T15:57:51;10.80;99.90
28484;DHT22;15704;48.834;8.736;2023-02-23T16:00:40;10.90;99.90
28484;DHT22;15704;48.834;8.736;2023-02-23T16:03:27;10.80;99.90
28484;DHT22;15704;48.834;8.736;2023-02-23T16:08:26;10.80;99.90
28484;DHT22;15704;48.834;8.736;2023-02-23T16:11:15;10.70;99.90
28484;DHT22;15704;48.834;8.736;2023-02-23T16:13:45;10.60;99.90
28484;DHT22;15704;48.834;8.736;2023-02-23T16:16:33;10.60;99.90
28484;DHT22;15704;48.834;8.736;2023-02-23T16:19:01;10.60;99.90
28484;DHT22;15704;48.834;8.736;2023-02-23T16:21:30;10.40;99.90
28484;DHT22;15704;48.834;8.736;2023-02-23T16:24:12;10.40;99.90
28484;DHT22;15704;48.834;8.736;2023-02-23T16:26:57;10.40;99.90
28484;DHT22;15704;48.834;8.736;2023-02-23T16:29:32;10.40;99.90
28484;DHT22;15704;48.834;8.736;2023-02-23T16:32:16;10.30;99.90
28484;DHT22;15704;48.834;8.736;2023-02-23T16:35:13;10.30;99.90
28484;DHT22;15704;48.834;8.736;2023-02-23T16:38:00;10.30;99.90
28484;DHT22;15704;48.834;8.736;2023-02-23T16:40:27;10.20;99.90
28484;DHT22;15704;48.834;8.736;2023-02-23T16:43:02;10.20;99.90
28484;DHT22;15704;48.834;8.736;2023-02-23T16:45:29;10.20;99.90
28484;DHT22;15704;48.834;8.736;2023-02-23T16:47:56;10.20;99.90
28484;DHT22;15704;48.834;8.736;2023-02-23T16:50:28;10.20;99.90
28484;DHT22;15704;48.834;8.736;2023-02-23T16:52:55;10.10;99.90
28484;DHT22;15704;48.834;8.736;2023-02-23T16:55:35;10.10;99.90
28484;DHT22;15704;48.834;8.736;2023-02-23T16:58:09;10.00;99.90
28484;DHT22;15704;48.834;8.736;2023-02-23T17:00:36;10.00;99.90
28484;DHT22;15704;48.834;8.736;2023-02-23T17:03:03;10.00;99.90
28484;DHT22;15704;48.834;8.736;2023-02-23T17:05:39;9.90;99.90
28484;DHT22;15704;48.834;8.736;2023-02-23T17:08:07;9.70;99.90
28484;DHT22;15704;48.834;8.736;2023-02-23T17:10:36;9.70;99.90
28484;DHT22;15704;48.834;8.736;2023-02-23T17:13:09;9.70;99.90
28484;DHT22;15704;48.834;8.736;2023-02-23T17:15:43;9.60;99.90
28484;DHT22;15704;48.834;8.736;2023-02-23T17:18:28;9.60;99.90
28484;DHT22;15704;48.834;8.736;2023-02-23T17:20:57;9.50;99.90
28484;DHT22;15704;48.834;8.736;2023-02-23T17:23:28;9.50;99.90
28484;DHT22;15704;48.834;8.736;2023-02-23T17:26:10;9.40;99.90
28484;DHT22;15704;48.834;8.736;2023-02-23T17:28:41;9.50;99.90
28484;DHT22;15704;48.834;8.736;2023-02-23T17:31:16;9.60;99.90
28484;DHT22;15704;48.834;8.736;2023-02-23T17:33:43;9.60;99.90
28484;DHT22;15704;48.834;8.736;2023-02-23T17:36:13;9.60;99.90
28484;DHT22;15704;48.834;8.736;2023-02-23T17:38:43;9.70;99.90
28484;DHT22;15704;48.834;8.736;2023-02-23T17:41:22;9.70;99.90
28484;DHT22;15704;48.834;8.736;2023-02-23T17:43:51;9.70;99.90
28484;DHT22;15704;48.834;8.736;2023-02-23T17:46:20;9.60;99.90
28484;DHT22;15704;48.834;8.736;2023-02-23T17:48:47;9.50;99.90
28484;DHT22;15704;48.834;8.736;2023-02-23T17:51:14;9.60;99.90
28484;DHT22;15704;48.834;8.736;2023-02-23T17:53:45;9.60;99.90
28484;DHT22;15704;48.834;8.736;2023-02-23T17:56:16;9.60;99.90
28484;DHT22;15704;48.834;8.736;2023-02-23T17:58:49;9.60;99.90
28484;DHT22;15704;48.834;8.736;2023-02-23T18:01:16;9.50;99.90
28484;DHT22;15704;48.834;8.736;2023-02-23T18:03:45;9.50;99.90
28484;DHT22;15704;48.834;8.736;2023-02-23T18:06:15;9.60;99.90
28484;DHT22;15704;48.834;8.736;2023-02-23T18:08:45;9.60;99.90
28484;DHT22;15704;48.834;8.736;2023-02-23T18:11:12;9.60;99.90
28484;DHT22;15704;48.834;8.736;2023-02-23T18:13:41;9.60;99.90
28484;DHT22;15704;48.834;8.736;2023-02-23T18:16:10;9.60;99.90
28484;DHT22;15704;48.834;8.736;2023-02-23T18:18:39;9.60;99.90
28484;DHT22;15704;48.834;8.736;2023-02-23T18:21:20;9.60;99.90
28484;DHT22;15704;48.834;8.736;2023-02-23T18:23:48;9.60;99.90
28484;DHT22;15704;48.834;8.736;2023-02-23T18:26:22;9.60;99.90
28484;DHT22;15704;48.834;8.736;2023-02-23T18:28:49;9.50;99.90
28484;DHT22;15704;48.834;8.736;2023-02-23T18:31:19;9.50;99.90
28484;DHT22;15704;48.834;8.736;2023-02-23T18:33:47;9.50;99.90
28484;DHT22;15704;48.834;8.736;2023-02-23T18:36:36;9.50;99.90
28484;DHT22;15704;48.834;8.736;2023-02-23T18:39:07;9.50;99.90
28484;DHT22;15704;48.834;8.736;2023-02-23T18:41:39;9.50;99.90
28484;DHT22;15704;48.834;8.736;2023-02-23T18:44:14;9.50;99.90
28484;DHT22;15704;48.834;8.736;2023-02-23T18:46:44;9.50;99.90